createdAt,value
2018-10-05T00:00:45.471Z,12.48
2018-10-05T00:03:13.819Z,12.39
2018-10-05T00:05:42.138Z,12.31
2018-10-05T00:08:10.479Z,12.36
2018-10-05T00:10:38.857Z,12.39
2018-10-05T00:13:07.241Z,12.43
2018-10-05T00:15:35.583Z,12.47
2018-10-05T00:18:04.015Z,12.49
2018-10-05T00:20:32.430Z,12.46
2018-10-05T00:23:00.753Z,12.50
2018-10-05T00:25:29.099Z,12.47
2018-10-05T00:27:57.474Z,12.51
2018-10-05T00:30:25.836Z,12.52
2018-10-05T00:32:54.196Z,12.55
2018-10-05T00:35:22.507Z,12.55
2018-10-05T00:37:50.867Z,12.55
2018-10-05T00:40:19.223Z,12.57
2018-10-05T00:42:47.579Z,12.57
2018-10-05T00:45:15.893Z,12.62
2018-10-05T00:47:44.258Z,12.64
2018-10-05T00:50:12.967Z,12.59
2018-10-05T00:52:41.307Z,12.64
2018-10-05T00:55:09.645Z,12.66
2018-10-05T00:57:37.999Z,12.69
2018-10-05T01:00:06.432Z,12.69
2018-10-05T01:02:34.781Z,12.71
2018-10-05T01:05:03.111Z,12.68
2018-10-05T01:07:31.480Z,12.67
2018-10-05T01:09:59.822Z,12.68
2018-10-05T01:12:28.167Z,12.71
2018-10-05T01:14:56.501Z,12.67
2018-10-05T01:17:24.834Z,12.70
2018-10-05T01:19:53.165Z,12.70
2018-10-05T01:22:21.490Z,12.69
2018-10-05T01:24:49.893Z,12.66
2018-10-05T01:27:18.249Z,12.70
2018-10-05T01:29:46.580Z,12.65
2018-10-05T01:32:15.034Z,12.63
2018-10-05T01:34:43.356Z,12.67
2018-10-05T01:37:11.694Z,12.64
2018-10-05T01:39:40.033Z,12.53
2018-10-05T01:42:08.364Z,12.62
2018-10-05T01:44:36.720Z,12.64
2018-10-05T01:47:05.048Z,12.63
2018-10-05T01:49:33.375Z,12.62
2018-10-05T01:52:01.721Z,12.56
2018-10-05T01:54:30.063Z,12.54
2018-10-05T01:56:58.432Z,12.58
2018-10-05T01:59:26.785Z,12.55
2018-10-05T02:01:55.115Z,12.55
2018-10-05T02:04:23.436Z,12.52
2018-10-05T02:06:51.792Z,12.54
2018-10-05T02:09:20.130Z,12.57
2018-10-05T02:11:48.472Z,12.57
2018-10-05T02:14:16.830Z,12.50
2018-10-05T02:16:45.173Z,12.50
2018-10-05T02:19:13.593Z,12.53
2018-10-05T02:21:41.942Z,12.47
2018-10-05T02:24:10.282Z,12.51
2018-10-05T02:26:38.646Z,12.50
2018-10-05T02:29:07.693Z,12.46
2018-10-05T02:31:36.127Z,12.47
2018-10-05T02:34:04.502Z,12.55
2018-10-05T02:36:32.849Z,12.56
2018-10-05T02:39:01.207Z,12.54
2018-10-05T02:41:29.576Z,12.55
2018-10-05T02:43:57.912Z,12.53
2018-10-05T02:46:26.259Z,12.50
2018-10-05T02:48:54.609Z,12.49
2018-10-05T02:51:22.975Z,12.53
2018-10-05T02:53:51.333Z,12.49
2018-10-05T02:56:19.682Z,12.44
2018-10-05T02:58:48.009Z,12.49
2018-10-05T03:01:27.673Z,12.51
2018-10-05T03:03:56.007Z,12.48
2018-10-05T03:06:24.398Z,12.49
2018-10-05T03:08:52.745Z,12.51
2018-10-05T03:11:21.072Z,12.50
2018-10-05T03:13:49.423Z,12.53
2018-10-05T03:16:17.965Z,12.55
2018-10-05T03:18:46.379Z,12.52
2018-10-05T03:21:14.707Z,12.49
2018-10-05T03:23:43.055Z,12.46
2018-10-05T03:26:11.622Z,12.50
2018-10-05T03:28:39.954Z,12.50
2018-10-05T03:31:08.384Z,12.54
2018-10-05T03:33:36.741Z,12.52
2018-10-05T03:36:05.064Z,12.54
2018-10-05T03:38:33.422Z,12.55
2018-10-05T03:41:01.783Z,12.53
2018-10-05T03:43:30.173Z,12.51
2018-10-05T03:45:58.606Z,12.53
2018-10-05T03:48:27.426Z,12.55
2018-10-05T03:50:55.769Z,12.53
2018-10-05T03:53:24.113Z,12.57
2018-10-05T03:55:52.460Z,12.55
2018-10-05T03:58:20.771Z,12.51
2018-10-05T04:00:49.118Z,12.51
2018-10-05T04:03:17.457Z,12.53
2018-10-05T04:05:45.837Z,12.56
2018-10-05T04:08:14.220Z,12.55
2018-10-05T04:10:42.561Z,12.58
2018-10-05T04:13:10.880Z,12.59
2018-10-05T04:15:39.228Z,12.55
2018-10-05T04:18:07.649Z,12.56
2018-10-05T04:20:36.019Z,12.57
2018-10-05T04:23:04.455Z,12.60
2018-10-05T04:25:32.804Z,12.60
2018-10-05T04:28:01.153Z,12.60
2018-10-05T04:30:29.494Z,12.57
2018-10-05T04:32:57.840Z,12.59
2018-10-05T04:35:27.204Z,12.54
2018-10-05T04:37:55.607Z,12.58
2018-10-05T04:40:23.944Z,12.63
2018-10-05T04:42:52.322Z,12.64
2018-10-05T04:45:20.680Z,12.65
2018-10-05T04:47:49.032Z,12.63
2018-10-05T04:50:17.399Z,12.64
2018-10-05T04:52:45.811Z,12.63
2018-10-05T04:55:14.156Z,12.63
2018-10-05T04:57:42.527Z,12.65
2018-10-05T05:00:10.881Z,12.64
2018-10-05T05:02:39.207Z,12.63
2018-10-05T05:05:07.555Z,12.63
2018-10-05T05:07:35.895Z,12.65
2018-10-05T05:10:04.558Z,12.64
2018-10-05T05:12:33.153Z,12.67
2018-10-05T05:15:01.748Z,12.68
2018-10-05T05:17:30.084Z,12.70
2018-10-05T05:19:58.433Z,12.68
2018-10-05T05:22:26.771Z,12.66
2018-10-05T05:24:55.267Z,12.63
2018-10-05T05:27:23.641Z,12.64
2018-10-05T05:29:51.978Z,12.63
2018-10-05T05:32:20.346Z,12.64
2018-10-05T05:34:48.797Z,12.60
2018-10-05T05:37:17.132Z,12.62
2018-10-05T05:39:45.447Z,12.64
2018-10-05T05:42:13.846Z,12.62
2018-10-05T05:44:42.169Z,12.67
2018-10-05T05:47:10.504Z,12.68
2018-10-05T05:49:38.906Z,12.72
2018-10-05T05:52:07.835Z,12.65
2018-10-05T05:54:36.214Z,12.70
2018-10-05T05:57:04.621Z,12.67
2018-10-05T05:59:32.989Z,12.72
2018-10-05T06:02:01.381Z,12.73
2018-10-05T06:04:29.713Z,12.78
2018-10-05T06:06:58.100Z,12.74
2018-10-05T06:09:26.440Z,12.79
2018-10-05T06:11:54.784Z,12.80
2018-10-05T06:14:23.125Z,12.85
2018-10-05T06:16:51.441Z,12.88
2018-10-05T06:19:19.767Z,12.90
2018-10-05T06:21:48.155Z,12.91
2018-10-05T06:24:16.460Z,12.93
2018-10-05T06:26:44.794Z,12.92
2018-10-05T06:29:13.672Z,12.92
2018-10-05T06:31:42.026Z,12.89
2018-10-05T06:34:10.373Z,12.93
2018-10-05T06:36:38.714Z,12.92
2018-10-05T06:39:08.230Z,12.94
2018-10-05T06:41:36.600Z,13.02
2018-10-05T06:44:04.967Z,13.00
2018-10-05T06:46:33.304Z,12.99
2018-10-05T06:49:01.659Z,13.03
2018-10-05T06:51:29.989Z,12.99
2018-10-05T06:53:58.321Z,13.02
2018-10-05T06:56:26.637Z,13.10
2018-10-05T06:58:54.988Z,13.13
2018-10-05T07:01:23.424Z,13.19
2018-10-05T07:03:51.697Z,13.24
2018-10-05T07:06:20.065Z,13.29
2018-10-05T07:08:48.411Z,13.35
2018-10-05T07:13:58.828Z,13.53
2018-10-05T07:16:27.180Z,13.67
2018-10-05T07:18:55.493Z,13.75
2018-10-05T07:21:23.971Z,13.83
2018-10-05T07:23:52.216Z,14.06
2018-10-05T07:26:20.556Z,14.31
2018-10-05T07:28:48.939Z,14.51
2018-10-05T07:31:17.278Z,14.76
2018-10-05T07:33:45.619Z,15.07
2018-10-05T07:36:13.944Z,15.38
2018-10-05T07:38:42.289Z,15.64
2018-10-05T07:41:11.714Z,15.91
2018-10-05T07:43:40.707Z,16.19
2018-10-05T07:46:09.864Z,16.78
2018-10-05T07:48:38.436Z,16.92
2018-10-05T07:51:06.988Z,17.22
2018-10-05T07:53:35.486Z,17.27
2018-10-05T07:56:03.848Z,17.52
2018-10-05T07:58:33.413Z,17.97
2018-10-05T08:01:01.866Z,18.37
2018-10-05T08:03:30.202Z,18.43
2018-10-05T08:05:58.657Z,18.19
2018-10-05T08:08:27.101Z,18.50
2018-10-05T08:10:55.621Z,19.10
2018-10-05T08:13:24.954Z,19.29
2018-10-05T08:15:53.334Z,19.51
2018-10-05T08:18:21.712Z,19.45
2018-10-05T08:20:50.065Z,19.63
2018-10-05T08:23:18.405Z,19.78
2018-10-05T08:25:46.738Z,20.28
2018-10-05T08:28:15.161Z,20.19
2018-10-05T08:30:43.485Z,20.47
2018-10-05T08:33:11.954Z,20.63
2018-10-05T08:35:40.424Z,20.75
2018-10-05T08:38:08.785Z,20.57
2018-10-05T08:40:37.093Z,20.73
2018-10-05T08:43:05.432Z,21.08
2018-10-05T08:45:33.768Z,21.38
2018-10-05T08:48:02.156Z,21.18
2018-10-05T08:50:30.471Z,21.77
2018-10-05T08:52:58.804Z,21.64
2018-10-05T08:55:27.129Z,22.03
2018-10-05T08:57:55.508Z,22.26
2018-10-05T09:00:23.867Z,22.49
2018-10-05T09:02:52.191Z,22.53
2018-10-05T09:05:20.524Z,21.99
2018-10-05T09:07:48.889Z,22.87
2018-10-05T09:10:17.225Z,23.05
2018-10-05T09:12:45.579Z,22.95
2018-10-05T09:15:13.912Z,23.03
2018-10-05T09:17:42.295Z,22.65
2018-10-05T09:20:10.641Z,22.83
2018-10-05T09:22:38.964Z,22.95
2018-10-05T09:25:07.292Z,23.37
2018-10-05T09:27:35.616Z,23.27
2018-10-05T09:30:04.029Z,23.77
2018-10-05T09:32:32.374Z,23.92
2018-10-05T09:35:00.724Z,23.64
2018-10-05T09:37:29.100Z,24.42
2018-10-05T09:39:57.499Z,23.80
2018-10-05T09:42:25.847Z,24.07
2018-10-05T09:44:54.209Z,24.39
2018-10-05T09:47:22.536Z,24.55
2018-10-05T09:49:50.882Z,24.87
2018-10-05T09:52:19.237Z,25.41
2018-10-05T09:54:47.546Z,24.80
2018-10-05T09:57:15.894Z,24.42
2018-10-05T09:59:44.266Z,24.75
2018-10-05T10:02:18.821Z,25.41
2018-10-05T10:04:47.212Z,25.11
2018-10-05T10:07:15.581Z,25.97
2018-10-05T10:09:43.901Z,26.41
2018-10-05T10:12:12.258Z,26.68
2018-10-05T10:14:40.589Z,27.02
2018-10-05T10:17:08.899Z,27.31
2018-10-05T10:19:37.245Z,28.21
2018-10-05T10:22:05.580Z,28.49
2018-10-05T10:24:33.938Z,28.53
2018-10-05T10:27:02.334Z,28.58
2018-10-05T10:29:30.653Z,27.12
2018-10-05T10:31:58.960Z,27.44
2018-10-05T10:34:27.373Z,26.82
2018-10-05T10:36:55.660Z,26.32
2018-10-05T10:39:23.970Z,25.97
2018-10-05T10:41:52.278Z,25.93
2018-10-05T10:44:20.632Z,25.18
2018-10-05T10:46:49.002Z,24.26
2018-10-05T10:49:17.382Z,24.61
2018-10-05T10:51:45.707Z,24.30
2018-10-05T10:54:14.164Z,23.95
2018-10-05T10:56:42.407Z,23.80
2018-10-05T10:59:10.759Z,23.55
2018-10-05T11:01:39.124Z,23.51
2018-10-05T11:04:07.546Z,23.32
2018-10-05T11:06:35.837Z,22.81
2018-10-05T11:09:05.059Z,22.86
2018-10-05T11:11:33.402Z,22.80
2018-10-05T11:14:01.792Z,22.43
2018-10-05T11:16:30.140Z,22.27
2018-10-05T11:18:58.482Z,22.23
2018-10-05T11:21:26.833Z,22.01
2018-10-05T11:23:55.479Z,22.08
2018-10-05T11:26:23.536Z,21.94
2018-10-05T11:28:51.848Z,21.73
2018-10-05T11:31:20.225Z,21.67
2018-10-05T11:33:48.561Z,21.54
2018-10-05T11:36:17.512Z,21.51
2018-10-05T11:38:45.877Z,21.35
2018-10-05T11:41:14.241Z,21.23
2018-10-05T11:43:42.581Z,21.11
2018-10-05T11:46:11.264Z,21.10
2018-10-05T11:48:39.598Z,21.07
2018-10-05T11:51:07.951Z,21.01
2018-10-05T11:53:36.870Z,20.64
2018-10-05T11:56:05.203Z,20.73
2018-10-05T11:58:33.592Z,20.64
2018-10-05T12:01:02.066Z,20.54
2018-10-05T12:03:30.451Z,20.38
2018-10-05T12:05:58.817Z,20.35
2018-10-05T12:08:27.159Z,20.42
2018-10-05T12:10:55.519Z,20.35
2018-10-05T12:13:24.405Z,20.28
2018-10-05T12:15:52.755Z,20.11
2018-10-05T12:18:21.139Z,20.14
2018-10-05T12:20:49.497Z,20.19
2018-10-05T12:23:17.857Z,20.17
2018-10-05T12:25:46.204Z,20.17
2018-10-05T12:28:14.538Z,20.23
2018-10-05T12:30:42.878Z,20.20
2018-10-05T12:33:11.222Z,20.19
2018-10-05T12:35:39.572Z,20.20
2018-10-05T12:38:07.901Z,20.18
2018-10-05T12:40:36.232Z,20.18
2018-10-05T12:43:04.546Z,20.16
2018-10-05T12:45:32.886Z,20.17
2018-10-05T12:48:01.533Z,20.19
2018-10-05T12:50:30.023Z,20.03
2018-10-05T12:52:58.504Z,20.12
2018-10-05T12:55:26.860Z,20.16
2018-10-05T12:57:55.208Z,20.19
2018-10-05T13:00:23.560Z,20.20
2018-10-05T13:02:51.940Z,20.18
2018-10-05T13:05:20.299Z,20.16
2018-10-05T13:07:48.611Z,20.17
2018-10-05T13:10:17.133Z,20.15
2018-10-05T13:12:45.476Z,20.14
2018-10-05T13:15:13.819Z,20.13
2018-10-05T13:17:43.034Z,20.08
2018-10-05T13:20:11.523Z,20.09
2018-10-05T13:22:39.893Z,20.05
2018-10-05T13:25:08.226Z,19.98
2018-10-05T13:27:36.836Z,19.99
2018-10-05T13:30:06.025Z,20.01
2018-10-05T13:32:34.340Z,20.05
2018-10-05T13:35:02.793Z,19.95
2018-10-05T13:37:31.273Z,19.99
2018-10-05T13:39:59.529Z,19.95
2018-10-05T13:42:27.941Z,19.92
2018-10-05T13:44:56.266Z,19.88
2018-10-05T13:47:24.653Z,19.87
2018-10-05T13:49:52.988Z,19.89
2018-10-05T13:52:21.445Z,19.88
2018-10-05T13:54:49.797Z,19.89
2018-10-05T13:57:18.305Z,19.87
2018-10-05T13:59:46.661Z,19.88
2018-10-05T14:02:14.999Z,19.86
2018-10-05T14:04:43.340Z,19.82
2018-10-05T14:07:11.745Z,19.80
2018-10-05T14:09:40.081Z,19.80
2018-10-05T14:12:08.412Z,19.80
2018-10-05T14:14:36.754Z,19.79
2018-10-05T14:17:05.102Z,19.77
2018-10-05T14:19:33.448Z,19.73
2018-10-05T14:22:01.791Z,19.73
2018-10-05T14:24:30.115Z,19.72
2018-10-05T14:26:58.491Z,19.68
2018-10-05T14:29:26.823Z,19.66
2018-10-05T14:31:55.173Z,19.64
2018-10-05T14:34:23.518Z,19.61
2018-10-05T14:36:51.862Z,19.60
2018-10-05T14:39:20.211Z,19.58
2018-10-05T14:41:48.676Z,19.57
2018-10-05T14:44:16.906Z,19.55
2018-10-05T14:46:45.273Z,19.54
2018-10-05T14:49:13.585Z,19.55
2018-10-05T14:51:42.001Z,19.55
2018-10-05T14:54:10.510Z,19.54
2018-10-05T14:56:38.865Z,19.51
2018-10-05T14:59:07.240Z,19.48
2018-10-05T15:01:35.787Z,19.49
2018-10-05T15:04:04.133Z,19.45
2018-10-05T15:06:32.495Z,19.42
2018-10-05T15:09:00.921Z,19.38
2018-10-05T15:11:29.255Z,19.36
2018-10-05T15:13:57.619Z,19.33
2018-10-05T15:16:25.961Z,19.30
2018-10-05T15:18:54.406Z,19.34
2018-10-05T15:21:22.773Z,19.35
2018-10-05T15:23:51.076Z,19.33
2018-10-05T15:26:19.440Z,19.32
2018-10-05T15:28:47.791Z,19.29
2018-10-05T15:31:16.151Z,19.26
2018-10-05T15:33:44.504Z,19.21
2018-10-05T15:36:12.926Z,19.19
2018-10-05T15:38:41.318Z,19.14
2018-10-05T15:41:09.638Z,19.14
2018-10-05T15:43:37.966Z,19.09
2018-10-05T15:46:08.594Z,19.04
2018-10-05T15:48:37.233Z,18.99
2018-10-05T15:51:06.026Z,18.99
2018-10-05T15:53:34.818Z,18.89
2018-10-05T15:56:03.613Z,18.93
2018-10-05T15:58:32.126Z,18.90
2018-10-05T16:01:00.436Z,18.88
2018-10-05T16:03:28.773Z,18.85
2018-10-05T16:05:57.139Z,18.83
2018-10-05T16:08:25.437Z,18.79
2018-10-05T16:10:53.780Z,18.76
2018-10-05T16:13:22.847Z,18.77
2018-10-05T16:15:51.179Z,18.75
2018-10-05T16:18:19.597Z,18.66
2018-10-05T16:20:47.912Z,18.65
2018-10-05T16:23:16.229Z,18.61
2018-10-05T16:25:44.583Z,18.57
2018-10-05T16:28:13.012Z,18.55
2018-10-05T16:30:41.433Z,18.44
2018-10-05T16:33:09.776Z,18.42
2018-10-05T16:35:38.123Z,18.39
2018-10-05T16:38:06.605Z,18.34
2018-10-05T16:40:34.946Z,18.27
2018-10-05T16:43:03.323Z,18.24
2018-10-05T16:45:31.672Z,18.21
2018-10-05T16:48:00.050Z,18.13
2018-10-05T16:50:28.399Z,18.10
2018-10-05T16:52:56.819Z,17.97
2018-10-05T16:55:25.175Z,17.93
2018-10-05T16:57:53.536Z,17.81
2018-10-05T17:00:21.873Z,17.81
2018-10-05T17:02:50.227Z,17.78
2018-10-05T17:05:18.555Z,17.71
2018-10-05T17:07:46.947Z,17.63
2018-10-05T17:10:15.335Z,17.58
2018-10-05T17:12:43.815Z,17.48
2018-10-05T17:15:12.188Z,17.38
2018-10-05T17:17:40.599Z,17.38
2018-10-05T17:20:09.082Z,17.33
2018-10-05T17:22:37.383Z,17.26
2018-10-05T17:25:06.013Z,17.23
2018-10-05T17:27:34.452Z,17.14
2018-10-05T17:30:02.907Z,17.13
2018-10-05T17:32:31.252Z,17.05
2018-10-05T17:34:59.661Z,16.94
2018-10-05T17:37:27.962Z,16.91
2018-10-05T17:39:56.318Z,16.77
2018-10-05T17:42:24.660Z,16.86
2018-10-05T17:44:53.008Z,16.82
2018-10-05T17:47:21.398Z,16.78
2018-10-05T17:49:50.447Z,16.71
2018-10-05T17:52:18.827Z,16.64
2018-10-05T17:54:47.246Z,16.64
2018-10-05T17:57:16.222Z,16.60
2018-10-05T17:59:44.587Z,16.51
2018-10-05T18:02:13.056Z,16.53
2018-10-05T18:04:41.311Z,16.51
2018-10-05T18:07:09.688Z,16.46
2018-10-05T18:09:38.021Z,16.43
2018-10-05T18:12:06.550Z,16.39
2018-10-05T18:14:34.948Z,16.32
2018-10-05T18:17:03.313Z,16.30
2018-10-05T18:19:31.689Z,16.28
2018-10-05T18:22:00.037Z,16.25
2018-10-05T18:24:28.405Z,16.19
2018-10-05T18:26:56.712Z,16.14
2018-10-05T18:29:25.064Z,16.13
2018-10-05T18:31:53.413Z,16.10
2018-10-05T18:34:21.763Z,16.08
2018-10-05T18:36:50.095Z,16.06
2018-10-05T18:39:18.445Z,16.05
2018-10-05T18:41:46.825Z,15.95
2018-10-05T18:44:15.218Z,15.94
2018-10-05T18:46:43.568Z,15.94
2018-10-05T18:49:11.901Z,15.92
2018-10-05T18:51:40.444Z,15.88
2018-10-05T18:54:08.783Z,15.83
2018-10-05T18:56:48.433Z,15.78
2018-10-05T18:59:16.801Z,15.79
2018-10-05T19:01:45.153Z,15.70
2018-10-05T19:04:13.507Z,15.71
2018-10-05T19:06:41.882Z,15.63
2018-10-05T19:09:10.254Z,15.60
2018-10-05T19:11:38.870Z,15.55
2018-10-05T19:14:07.431Z,15.54
2018-10-05T19:16:35.809Z,15.50
2018-10-05T19:19:04.320Z,15.47
2018-10-05T19:21:32.686Z,15.44
2018-10-05T19:24:01.049Z,15.45
2018-10-05T19:26:29.523Z,15.45
2018-10-05T19:28:57.789Z,15.43
2018-10-05T19:31:26.158Z,15.36
2018-10-05T19:33:54.486Z,15.37
2018-10-05T19:36:22.854Z,15.37
2018-10-05T19:38:51.231Z,15.40
2018-10-05T19:41:19.605Z,15.37
2018-10-05T19:43:47.928Z,15.37
2018-10-05T19:46:16.424Z,15.37
2018-10-05T19:48:44.859Z,15.33
2018-10-05T19:51:13.232Z,15.33
2018-10-05T19:53:41.647Z,15.30
2018-10-05T19:56:10.253Z,15.30
2018-10-05T19:58:38.591Z,15.24
2018-10-05T20:01:07.067Z,15.23
2018-10-05T20:03:35.408Z,15.19
2018-10-05T20:06:03.770Z,15.19
2018-10-05T20:08:32.171Z,15.15
2018-10-05T20:11:00.592Z,15.13
2018-10-05T20:13:28.952Z,15.10
2018-10-05T20:15:57.322Z,15.03
2018-10-05T20:18:25.995Z,15.02
2018-10-05T20:20:54.426Z,14.98
2018-10-05T20:23:22.773Z,14.97
2018-10-05T20:25:51.140Z,14.92
2018-10-05T20:28:19.478Z,14.88
2018-10-05T20:30:47.901Z,14.85
2018-10-05T20:33:16.249Z,14.75
2018-10-05T20:35:44.591Z,14.80
2018-10-05T20:38:12.989Z,14.74
2018-10-05T20:40:41.367Z,14.67
2018-10-05T20:43:09.933Z,14.68
2018-10-05T20:45:38.301Z,14.66
2018-10-05T20:48:06.693Z,14.61
2018-10-05T20:50:35.000Z,14.55
2018-10-05T20:53:03.320Z,14.53
2018-10-05T20:55:31.808Z,14.54
2018-10-05T20:58:00.175Z,14.50
2018-10-05T21:00:28.529Z,14.46
2018-10-05T21:02:56.931Z,14.35
2018-10-05T21:05:25.428Z,14.30
2018-10-05T21:07:53.790Z,14.34
2018-10-05T21:10:22.228Z,14.26
2018-10-05T21:12:50.601Z,14.27
2018-10-05T21:15:19.368Z,14.28
2018-10-05T21:17:47.793Z,14.21
2018-10-05T21:20:16.224Z,14.21
2018-10-05T21:22:44.648Z,14.17
2018-10-05T21:25:13.012Z,14.19
2018-10-05T21:27:41.444Z,14.18
2018-10-05T21:30:09.852Z,14.08
2018-10-05T21:32:38.206Z,14.08
2018-10-05T21:35:06.572Z,14.03
2018-10-05T21:37:34.940Z,14.02
2018-10-05T21:40:03.338Z,14.01
2018-10-05T21:42:31.700Z,13.96
2018-10-05T21:45:00.153Z,13.90
2018-10-05T21:47:28.462Z,13.83
2018-10-05T21:49:56.874Z,13.81
2018-10-05T21:52:25.262Z,13.81
2018-10-05T21:54:53.687Z,13.81
2018-10-05T21:57:22.042Z,13.78
2018-10-05T21:59:50.419Z,13.79
2018-10-05T22:02:18.803Z,13.77
2018-10-05T22:04:47.208Z,13.68
2018-10-05T22:07:15.596Z,13.64
2018-10-05T22:09:43.932Z,13.60
2018-10-05T22:12:12.312Z,13.60
2018-10-05T22:14:40.682Z,13.62
2018-10-05T22:17:09.073Z,13.55
2018-10-05T22:19:37.675Z,13.54
2018-10-05T22:22:05.941Z,13.56
2018-10-05T22:24:34.309Z,13.46
2018-10-05T22:27:02.688Z,13.42
2018-10-05T22:29:31.069Z,13.29
2018-10-05T22:31:59.606Z,13.31
2018-10-05T22:34:27.980Z,13.30
2018-10-05T22:36:56.337Z,13.33
2018-10-05T22:39:24.731Z,13.33
2018-10-05T22:41:53.234Z,13.31
2018-10-05T22:44:21.579Z,13.25
2018-10-05T22:46:49.960Z,13.26
2018-10-05T22:49:18.292Z,13.24
2018-10-05T22:51:47.672Z,13.23
2018-10-05T22:54:15.999Z,13.24
2018-10-05T22:56:44.433Z,13.24
2018-10-05T22:59:12.812Z,13.24
2018-10-05T23:01:41.241Z,13.23
2018-10-05T23:04:09.689Z,13.18
2018-10-05T23:06:38.085Z,13.21
2018-10-05T23:09:07.965Z,13.18
2018-10-05T23:11:36.583Z,13.20
2018-10-05T23:14:04.992Z,13.20
2018-10-05T23:16:33.534Z,13.19
2018-10-05T23:19:02.030Z,13.18
2018-10-05T23:21:30.458Z,13.15
2018-10-05T23:23:58.850Z,13.17
2018-10-05T23:26:27.197Z,13.17
2018-10-05T23:28:55.610Z,13.12
2018-10-05T23:31:23.956Z,13.11
2018-10-05T23:33:52.302Z,13.06
2018-10-05T23:36:20.656Z,13.08
2018-10-05T23:38:48.990Z,13.02
2018-10-05T23:41:17.345Z,13.06
2018-10-05T23:43:46.020Z,12.99
2018-10-05T23:46:14.434Z,13.00
2018-10-05T23:48:42.779Z,12.99
2018-10-05T23:51:11.228Z,12.97
2018-10-05T23:53:39.574Z,12.95
2018-10-05T23:56:07.916Z,12.91
2018-10-05T23:58:36.301Z,12.91
